createdAt,value
2022-12-29T00:00:29.364Z,100404.56
2022-12-29T00:01:31.486Z,100401.84
2022-12-29T00:02:33.014Z,100409.16
2022-12-29T00:03:34.564Z,100399.22
2022-12-29T00:04:36.119Z,100400.09
2022-12-29T00:05:37.535Z,100410.97
2022-12-29T00:06:38.927Z,100404.56
2022-12-29T00:07:40.360Z,100400.13
2022-12-29T00:08:41.932Z,100382.19
2022-12-29T00:09:43.509Z,100394.56
2022-12-29T00:10:50.719Z,100390.00
2022-12-29T00:11:52.248Z,100396.38
2022-12-29T00:13:12.222Z,100382.78
2022-12-29T00:14:32.645Z,100385.53
2022-12-29T00:15:39.932Z,100390.78
2022-12-29T00:16:46.192Z,100383.59
2022-12-29T00:17:47.588Z,100389.13
2022-12-29T00:18:50.457Z,100379.88
2022-12-29T00:20:10.186Z,100375.47
2022-12-29T00:21:34.653Z,100379.16
2022-12-29T00:22:54.582Z,100380.03
2022-12-29T00:24:28.376Z,100380.88
2022-12-29T00:25:48.618Z,100362.53
2022-12-29T00:27:30.832Z,100372.47
2022-12-29T00:28:51.321Z,100373.41
2022-12-29T00:30:11.591Z,100380.75
2022-12-29T00:31:34.103Z,100363.53
2022-12-29T00:32:54.173Z,100367.09
2022-12-29T00:34:13.884Z,100369.84
2022-12-29T00:35:26.236Z,100364.53
2022-12-29T00:36:34.205Z,100369.09
2022-12-29T00:38:01.467Z,100363.56
2022-12-29T00:39:28.940Z,100365.38
2022-12-29T00:40:48.761Z,100358.16
2022-12-29T00:42:08.617Z,100357.25
2022-12-29T00:43:28.516Z,100358.16
2022-12-29T00:44:29.945Z,100349.06
2022-12-29T00:45:31.348Z,100360.88
2022-12-29T00:46:37.171Z,100362.69
2022-12-29T00:47:38.604Z,100354.63
2022-12-29T00:48:58.654Z,100370.91
2022-12-29T00:49:59.939Z,100366.28
2022-12-29T00:51:01.346Z,100344.59
2022-12-29T00:52:11.320Z,100354.53
2022-12-29T00:53:12.731Z,100358.19
2022-12-29T00:54:18.435Z,100344.66
2022-12-29T00:55:19.848Z,100347.38
2022-12-29T00:56:21.426Z,100350.81
2022-12-29T00:57:22.830Z,100358.06
2022-12-29T00:58:24.337Z,100361.63
2022-12-29T00:59:26.197Z,100356.13
2022-12-29T01:00:27.666Z,100357.78
2022-12-29T01:01:29.481Z,100353.38
2022-12-29T01:02:31.028Z,100350.72
2022-12-29T01:03:33.333Z,100358.84
2022-12-29T01:04:36.503Z,100360.59
2022-12-29T01:05:38.231Z,100345.34
2022-12-29T01:06:41.117Z,100348.13
2022-12-29T01:07:42.528Z,100339.16
2022-12-29T01:08:43.930Z,100348.97
2022-12-29T01:10:03.854Z,100335.31
2022-12-29T01:11:10.810Z,100339.03
2022-12-29T01:12:13.064Z,100346.28
2022-12-29T01:13:15.650Z,100338.00
2022-12-29T01:14:19.416Z,100338.97
2022-12-29T01:15:21.834Z,100346.31
2022-12-29T01:16:23.280Z,100337.38
2022-12-29T01:17:24.706Z,100331.03
2022-12-29T01:18:27.501Z,100343.59
2022-12-29T01:19:28.937Z,100338.16
2022-12-29T01:20:30.326Z,100343.53
2022-12-29T01:21:32.148Z,100334.44
2022-12-29T01:22:33.558Z,100339.97
2022-12-29T01:23:35.316Z,100344.53
2022-12-29T01:24:36.821Z,100329.22
2022-12-29T01:25:38.236Z,100333.75
2022-12-29T01:26:39.782Z,100337.31
2022-12-29T01:27:41.176Z,100341.84
2022-12-29T01:28:43.063Z,100341.69
2022-12-29T01:29:44.557Z,100341.56
2022-12-29T01:30:45.979Z,100337.00
2022-12-29T01:31:47.623Z,100334.34
2022-12-29T01:32:49.078Z,100343.38
2022-12-29T01:33:50.490Z,100334.38
2022-12-29T01:34:51.925Z,100339.81
2022-12-29T01:35:55.932Z,100341.63
2022-12-29T01:36:57.375Z,100345.25
2022-12-29T01:37:58.985Z,100335.50
2022-12-29T01:39:00.430Z,100336.41
2022-12-29T01:40:01.888Z,100333.75
2022-12-29T01:41:04.690Z,100344.50
2022-12-29T01:42:17.111Z,100336.31
2022-12-29T01:43:19.553Z,100348.75
2022-12-29T01:44:56.981Z,100348.97
2022-12-29T01:45:58.427Z,100349.03
2022-12-29T01:47:02.545Z,100346.34
2022-12-29T01:48:06.399Z,100344.50
2022-12-29T01:49:25.323Z,100341.72
2022-12-29T01:50:33.670Z,100345.50
2022-12-29T01:51:49.430Z,100332.69
2022-12-29T01:53:29.217Z,100346.28
2022-12-29T01:54:37.508Z,100338.00
2022-12-29T01:55:43.917Z,100337.22
2022-12-29T01:56:46.693Z,100328.28
2022-12-29T01:57:52.248Z,100324.75
2022-12-29T01:59:07.594Z,100327.31
2022-12-29T02:00:14.501Z,100327.44
2022-12-29T02:01:19.344Z,100322.91
2022-12-29T02:02:21.176Z,100327.44
2022-12-29T02:03:27.270Z,100312.75
2022-12-29T02:04:32.718Z,100309.28
2022-12-29T02:05:37.129Z,100321.00
2022-12-29T02:06:46.169Z,100297.66
2022-12-29T02:07:48.740Z,100315.84
2022-12-29T02:08:53.134Z,100305.91
2022-12-29T02:09:56.168Z,100315.69
2022-12-29T02:11:00.343Z,100310.31
2022-12-29T02:12:04.484Z,100312.00
2022-12-29T02:13:06.024Z,100311.91
2022-12-29T02:14:13.573Z,100311.22
2022-12-29T02:15:15.932Z,100295.06
2022-12-29T02:16:32.977Z,100310.41
2022-12-29T02:17:42.658Z,100303.09
2022-12-29T02:19:07.585Z,100303.03
2022-12-29T02:20:43.338Z,100302.03
2022-12-29T02:21:45.638Z,100297.66
2022-12-29T02:23:12.147Z,100298.44
2022-12-29T02:24:31.883Z,100297.53
2022-12-29T02:26:15.289Z,100296.41
2022-12-29T02:27:34.850Z,100292.06
2022-12-29T02:29:08.694Z,100285.63
2022-12-29T02:30:31.502Z,100302.59
2022-12-29T02:31:47.143Z,100290.16
2022-12-29T02:33:30.614Z,100289.16
2022-12-29T02:34:59.199Z,100300.94
2022-12-29T02:36:22.770Z,100301.91
2022-12-29T02:37:29.515Z,100292.75
2022-12-29T02:38:41.149Z,100296.38
2022-12-29T02:40:00.960Z,100278.50
2022-12-29T02:41:30.996Z,100285.56
2022-12-29T02:42:50.643Z,100291.00
2022-12-29T02:44:02.630Z,100282.88
2022-12-29T02:45:22.946Z,100298.25
2022-12-29T02:46:36.176Z,100290.16
2022-12-29T02:47:46.623Z,100274.97
2022-12-29T02:49:11.952Z,100290.22
2022-12-29T02:50:20.031Z,100288.47
2022-12-29T02:51:58.127Z,100292.06
2022-12-29T02:53:01.037Z,100289.06
2022-12-29T02:54:21.392Z,100285.66
2022-12-29T02:55:25.670Z,100285.47
2022-12-29T02:56:27.111Z,100291.72
2022-12-29T02:57:31.418Z,100282.03
2022-12-29T02:58:32.845Z,100299.88
2022-12-29T02:59:34.296Z,100289.69
2022-12-29T03:00:42.451Z,100296.03
2022-12-29T03:02:11.704Z,100289.50
2022-12-29T03:03:51.719Z,100283.31
2022-12-29T03:05:11.223Z,100289.75
2022-12-29T03:06:32.087Z,100289.75
2022-12-29T03:07:39.477Z,100279.03
2022-12-29T03:09:18.918Z,100277.22
2022-12-29T03:10:29.250Z,100280.00
2022-12-29T03:11:59.038Z,100265.63
2022-12-29T03:13:58.156Z,100272.53
2022-12-29T03:15:27.995Z,100259.97
2022-12-29T03:17:11.398Z,100258.16
2022-12-29T03:18:26.184Z,100256.47
2022-12-29T03:19:35.978Z,100260.16
2022-12-29T03:20:53.641Z,100253.69
2022-12-29T03:22:18.769Z,100262.78
2022-12-29T03:23:21.803Z,100256.47
2022-12-29T03:24:38.091Z,100241.03
2022-12-29T03:25:48.281Z,100242.78
2022-12-29T03:26:53.753Z,100242.75
2022-12-29T03:28:02.118Z,100249.97
2022-12-29T03:29:06.920Z,100250.78
2022-12-29T03:30:09.966Z,100242.72
2022-12-29T03:31:13.415Z,100247.19
2022-12-29T03:32:17.448Z,100244.47
2022-12-29T03:33:24.184Z,100245.25
2022-12-29T03:34:27.249Z,100241.75
2022-12-29T03:35:33.520Z,100241.72
2022-12-29T03:36:45.042Z,100239.06
2022-12-29T03:37:56.198Z,100243.38
2022-12-29T03:39:09.004Z,100245.00
2022-12-29T03:40:10.855Z,100240.59
2022-12-29T03:41:17.966Z,100236.13
2022-12-29T03:42:28.693Z,100248.66
2022-12-29T03:43:30.437Z,100248.63
2022-12-29T03:44:34.381Z,100241.31
2022-12-29T03:45:35.813Z,100239.66
2022-12-29T03:46:37.279Z,100237.88
2022-12-29T03:47:38.777Z,100238.81
2022-12-29T03:48:40.234Z,100243.25
2022-12-29T03:49:41.946Z,100233.38
2022-12-29T03:50:43.407Z,100230.72
2022-12-29T03:51:51.829Z,100239.50
2022-12-29T03:52:53.541Z,100242.22
2022-12-29T03:53:55.013Z,100235.03
2022-12-29T03:54:56.494Z,100236.84
2022-12-29T03:55:57.953Z,100239.50
2022-12-29T03:56:59.524Z,100245.91
2022-12-29T03:58:00.988Z,100242.97
2022-12-29T03:59:02.437Z,100240.13
2022-12-29T04:00:06.152Z,100252.81
2022-12-29T04:01:07.678Z,100246.47
2022-12-29T04:02:09.330Z,100256.44
2022-12-29T04:03:10.913Z,100248.50
2022-12-29T04:04:12.420Z,100261.16
2022-12-29T04:05:13.931Z,100253.72
2022-12-29T04:06:15.853Z,100245.56
2022-12-29T04:07:17.287Z,100239.94
2022-12-29T04:08:19.684Z,100240.97
2022-12-29T04:09:21.138Z,100237.19
2022-12-29T04:10:22.550Z,100247.16
2022-12-29T04:11:28.370Z,100239.28
2022-12-29T04:12:32.737Z,100249.25
2022-12-29T04:13:37.153Z,100246.53
2022-12-29T04:14:38.545Z,100242.91
2022-12-29T04:15:40.092Z,100233.94
2022-12-29T04:16:41.715Z,100240.34
2022-12-29T04:17:43.174Z,100237.59
2022-12-29T04:18:44.641Z,100227.72
2022-12-29T04:19:46.230Z,100230.13
2022-12-29T04:21:03.693Z,100235.56
2022-12-29T04:22:05.283Z,100242.78
2022-12-29T04:23:07.246Z,100242.97
2022-12-29T04:24:08.918Z,100251.06
2022-12-29T04:25:10.819Z,100250.06
2022-12-29T04:26:12.927Z,100235.75
2022-12-29T04:27:14.320Z,100245.56
2022-12-29T04:28:17.196Z,100248.28
2022-12-29T04:29:20.309Z,100237.44
2022-12-29T04:30:21.729Z,100233.72
2022-12-29T04:31:23.224Z,100232.81
2022-12-29T04:32:27.518Z,100230.13
2022-12-29T04:33:29.031Z,100231.13
2022-12-29T04:34:30.432Z,100226.63
2022-12-29T04:35:31.877Z,100240.13
2022-12-29T04:36:33.385Z,100224.75
2022-12-29T04:37:34.825Z,100219.47
2022-12-29T04:38:36.237Z,100224.69
2022-12-29T04:39:37.650Z,100227.53
2022-12-29T04:40:44.934Z,100230.31
2022-12-29T04:41:47.294Z,100225.84
2022-12-29T04:42:51.791Z,100223.00
2022-12-29T04:43:53.221Z,100224.88
2022-12-29T04:44:54.649Z,100227.47
2022-12-29T04:45:56.465Z,100224.88
2022-12-29T04:46:57.983Z,100226.78
2022-12-29T04:47:59.499Z,100234.97
2022-12-29T04:49:05.471Z,100216.75
2022-12-29T04:50:07.321Z,100228.44
2022-12-29T04:51:08.917Z,100225.94
2022-12-29T04:52:10.337Z,100230.03
2022-12-29T04:53:11.761Z,100221.84
2022-12-29T04:54:13.159Z,100232.41
2022-12-29T04:55:14.767Z,100228.03
2022-12-29T04:56:16.246Z,100225.44
2022-12-29T04:57:17.691Z,100221.91
2022-12-29T04:58:22.883Z,100217.22
2022-12-29T04:59:24.654Z,100213.69
2022-12-29T05:00:29.228Z,100212.84
2022-12-29T05:01:30.708Z,100213.88
2022-12-29T05:02:32.416Z,100207.75
2022-12-29T05:03:33.984Z,100212.28
2022-12-29T05:04:35.442Z,100223.00
2022-12-29T05:05:37.197Z,100215.78
2022-12-29T05:06:38.635Z,100220.16
2022-12-29T05:07:40.299Z,100223.84
2022-12-29T05:08:41.748Z,100220.97
2022-12-29T05:09:45.612Z,100216.56
2022-12-29T05:10:47.524Z,100229.97
2022-12-29T05:11:48.958Z,100220.97
2022-12-29T05:12:50.388Z,100220.91
2022-12-29T05:13:51.802Z,100221.97
2022-12-29T05:14:53.232Z,100214.66
2022-12-29T05:15:54.953Z,100214.53
2022-12-29T05:16:59.222Z,100205.59
2022-12-29T05:18:00.653Z,100211.94
2022-12-29T05:19:05.234Z,100198.50
2022-12-29T05:20:07.630Z,100197.50
2022-12-29T05:21:09.070Z,100194.59
2022-12-29T05:22:10.496Z,100188.34
2022-12-29T05:23:12.110Z,100196.25
2022-12-29T05:24:13.590Z,100204.25
2022-12-29T05:25:15.110Z,100198.81
2022-12-29T05:26:16.614Z,100189.72
2022-12-29T05:27:18.197Z,100191.59
2022-12-29T05:28:19.908Z,100184.19
2022-12-29T05:29:24.016Z,100173.56
2022-12-29T05:30:25.453Z,100181.69
2022-12-29T05:31:30.737Z,100183.19
2022-12-29T05:32:32.221Z,100176.13
2022-12-29T05:33:34.552Z,100175.09
2022-12-29T05:34:35.961Z,100167.81
2022-12-29T05:35:37.416Z,100178.84
2022-12-29T05:36:39.172Z,100167.97
2022-12-29T05:37:40.554Z,100175.81
2022-12-29T05:38:42.002Z,100183.06
2022-12-29T05:39:43.551Z,100179.16
2022-12-29T05:40:46.071Z,100187.03
2022-12-29T05:41:47.622Z,100164.47
2022-12-29T05:42:49.056Z,100164.88
2022-12-29T05:43:50.487Z,100166.19
2022-12-29T05:44:54.652Z,100162.63
2022-12-29T05:45:57.299Z,100168.91
2022-12-29T05:46:58.775Z,100163.47
2022-12-29T05:48:00.242Z,100183.56
2022-12-29T05:49:01.655Z,100166.34
2022-12-29T05:50:03.407Z,100172.53
2022-12-29T05:51:07.824Z,100168.22
2022-12-29T05:52:09.377Z,100166.44
2022-12-29T05:53:10.880Z,100174.34
2022-12-29T05:54:13.312Z,100170.38
2022-12-29T05:55:14.885Z,100168.75
2022-12-29T05:56:16.575Z,100162.50
2022-12-29T05:57:18.969Z,100163.03
2022-12-29T05:58:21.094Z,100170.16
2022-12-29T05:59:22.656Z,100167.50
2022-12-29T06:00:24.381Z,100170.38
2022-12-29T06:01:25.874Z,100170.31
2022-12-29T06:02:27.411Z,100165.94
2022-12-29T06:03:28.989Z,100165.09
2022-12-29T06:04:30.753Z,100161.66
2022-12-29T06:05:32.188Z,100161.66
2022-12-29T06:06:33.728Z,100168.75
2022-12-29T06:07:35.255Z,100154.34
2022-12-29T06:08:36.656Z,100155.88
2022-12-29T06:09:38.042Z,100161.34
2022-12-29T06:10:39.503Z,100157.88
2022-12-29T06:11:40.987Z,100166.13
2022-12-29T06:12:42.477Z,100172.53
2022-12-29T06:13:43.895Z,100158.03
2022-12-29T06:14:45.307Z,100159.88
2022-12-29T06:15:50.048Z,100167.88
2022-12-29T06:16:54.180Z,100173.25
2022-12-29T06:17:58.505Z,100163.06
2022-12-29T06:18:59.964Z,100154.19
2022-12-29T06:20:02.116Z,100149.88
2022-12-29T06:21:05.854Z,100159.66
2022-12-29T06:22:08.432Z,100157.78
2022-12-29T06:23:09.909Z,100149.00
2022-12-29T06:24:12.064Z,100145.28
2022-12-29T06:25:13.536Z,100158.03
2022-12-29T06:26:15.663Z,100161.75
2022-12-29T06:27:21.140Z,100165.22
2022-12-29T06:28:22.584Z,100152.66
2022-12-29T06:29:24.025Z,100149.19
2022-12-29T06:30:25.648Z,100157.19
2022-12-29T06:31:27.156Z,100165.53
2022-12-29T06:32:28.652Z,100159.09
2022-12-29T06:33:30.643Z,100161.59
2022-12-29T06:34:31.951Z,100166.13
2022-12-29T06:35:33.586Z,100161.44
2022-12-29T06:36:35.284Z,100157.06
2022-12-29T06:37:36.920Z,100163.16
2022-12-29T06:38:38.339Z,100168.00
2022-12-29T06:39:39.793Z,100159.09
2022-12-29T06:40:43.993Z,100168.13
2022-12-29T06:41:45.466Z,100158.03
2022-12-29T06:42:46.898Z,100158.09
2022-12-29T06:43:51.448Z,100151.50
2022-12-29T06:44:53.294Z,100158.94
2022-12-29T06:45:57.658Z,100167.13
2022-12-29T06:47:02.198Z,100170.78
2022-12-29T06:48:03.709Z,100177.88
2022-12-29T06:49:05.322Z,100168.25
2022-12-29T06:50:07.023Z,100165.69
2022-12-29T06:51:10.241Z,100175.66
2022-12-29T06:52:13.230Z,100179.09
2022-12-29T06:53:15.460Z,100173.81
2022-12-29T06:54:16.869Z,100167.56
2022-12-29T06:55:18.690Z,100181.00
2022-12-29T06:56:20.111Z,100179.09
2022-12-29T06:57:22.205Z,100177.06
2022-12-29T06:58:23.659Z,100187.03
2022-12-29T06:59:28.430Z,100185.22
2022-12-29T07:00:29.875Z,100181.59
2022-12-29T07:01:31.657Z,100181.44
2022-12-29T07:02:33.242Z,100181.44
2022-12-29T07:03:34.813Z,100175.28
2022-12-29T07:04:36.296Z,100190.78
2022-12-29T07:05:37.736Z,100187.22
2022-12-29T07:06:39.611Z,100181.66
2022-12-29T07:07:41.048Z,100170.22
2022-12-29T07:08:42.498Z,100185.63
2022-12-29T07:09:43.922Z,100178.94
2022-12-29T07:10:46.407Z,100182.56
2022-12-29T07:11:47.907Z,100188.06
2022-12-29T07:12:49.492Z,100184.78
2022-12-29T07:13:51.179Z,100189.22
2022-12-29T07:14:52.621Z,100190.38
2022-12-29T07:15:54.161Z,100196.75
2022-12-29T07:16:58.630Z,100186.75
2022-12-29T07:18:00.080Z,100186.59
2022-12-29T07:19:02.491Z,100187.16
2022-12-29T07:20:06.927Z,100196.94
2022-12-29T07:21:08.436Z,100192.13
2022-12-29T07:22:10.533Z,100199.38
2022-12-29T07:23:11.961Z,100188.19
2022-12-29T07:24:13.456Z,100202.50
2022-12-29T07:25:14.997Z,100197.03
2022-12-29T07:26:18.982Z,100195.56
2022-12-29T07:27:20.486Z,100193.84
2022-12-29T07:28:21.907Z,100198.47
2022-12-29T07:29:28.925Z,100190.41
2022-12-29T07:30:30.592Z,100186.69
2022-12-29T07:31:32.262Z,100204.84
2022-12-29T07:32:35.016Z,100202.84
2022-12-29T07:33:36.452Z,100194.75
2022-12-29T07:34:37.933Z,100200.22
2022-12-29T07:35:39.400Z,100205.00
2022-12-29T07:36:40.876Z,100193.09
2022-12-29T07:37:42.300Z,100184.06
2022-12-29T07:38:44.199Z,100195.66
2022-12-29T07:39:45.753Z,100190.34
2022-12-29T07:40:49.611Z,100186.97
2022-12-29T07:41:51.033Z,100194.31
2022-12-29T07:42:52.447Z,100189.78
2022-12-29T07:43:53.864Z,100191.69
2022-12-29T07:44:55.282Z,100191.72
2022-12-29T07:45:56.854Z,100192.41
2022-12-29T07:46:58.852Z,100193.13
2022-12-29T07:48:00.479Z,100193.34
2022-12-29T07:49:01.978Z,100190.72
2022-12-29T07:50:03.911Z,100195.91
2022-12-29T07:51:05.489Z,100195.19
2022-12-29T07:52:06.971Z,100197.06
2022-12-29T07:53:08.635Z,100199.75
2022-12-29T07:54:13.596Z,100198.72
2022-12-29T07:55:18.831Z,100198.56
2022-12-29T07:56:20.305Z,100204.06
2022-12-29T07:57:26.433Z,100206.53
2022-12-29T07:58:31.155Z,100193.97
2022-12-29T07:59:32.824Z,100196.34
2022-12-29T08:00:38.972Z,100198.28
2022-12-29T08:01:46.643Z,100197.28
2022-12-29T08:02:48.248Z,100197.28
2022-12-29T08:03:55.389Z,100177.53
2022-12-29T08:04:58.636Z,100191.91
2022-12-29T08:06:00.300Z,100195.69
2022-12-29T08:07:01.864Z,100190.22
2022-12-29T08:08:03.396Z,100181.53
2022-12-29T08:09:14.798Z,100163.72
2022-12-29T08:10:18.643Z,100192.19
2022-12-29T08:11:19.978Z,100194.31
2022-12-29T08:12:21.465Z,100195.13
2022-12-29T08:13:22.865Z,100185.97
2022-12-29T08:14:24.619Z,100194.00
2022-12-29T08:15:32.172Z,100185.53
2022-12-29T08:16:34.123Z,100189.09
2022-12-29T08:17:35.958Z,100180.13
2022-12-29T08:18:37.366Z,100162.13
2022-12-29T08:19:39.101Z,100174.78
2022-12-29T08:20:40.525Z,100163.88
2022-12-29T08:21:42.090Z,100165.44
2022-12-29T08:22:43.512Z,100152.72
2022-12-29T08:23:44.930Z,100161.78
2022-12-29T08:24:46.429Z,100169.13
2022-12-29T08:25:48.204Z,100172.53
2022-12-29T08:26:49.627Z,100177.19
2022-12-29T08:27:53.049Z,100187.16
2022-12-29T08:28:56.636Z,100192.66
2022-12-29T08:29:58.051Z,100170.88
2022-12-29T08:31:01.345Z,100178.19
2022-12-29T08:32:03.081Z,100178.44
2022-12-29T08:33:04.541Z,100176.56
2022-12-29T08:34:06.666Z,100184.03
2022-12-29T08:35:08.554Z,100172.09
2022-12-29T08:36:10.371Z,100170.88
2022-12-29T08:37:11.803Z,100189.09
2022-12-29T08:38:13.325Z,100174.19
2022-12-29T08:39:14.818Z,100170.59
2022-12-29T08:40:16.215Z,100171.50
2022-12-29T08:41:17.649Z,100150.53
2022-12-29T08:42:19.205Z,100161.44
2022-12-29T08:43:20.694Z,100170.53
2022-12-29T08:44:22.754Z,100169.41
2022-12-29T08:45:24.060Z,100170.50
2022-12-29T08:46:25.726Z,100166.16
2022-12-29T08:47:28.004Z,100171.84
2022-12-29T08:48:29.554Z,100168.22
2022-12-29T08:49:30.987Z,100173.59
2022-12-29T08:50:32.407Z,100165.75
2022-12-29T08:51:33.855Z,100178.22
2022-12-29T08:52:35.270Z,100177.53
2022-12-29T08:53:36.670Z,100169.94
2022-12-29T08:54:38.093Z,100162.59
2022-12-29T08:55:39.566Z,100180.41
2022-12-29T08:56:41.037Z,100176.03
2022-12-29T08:57:46.215Z,100177.22
2022-12-29T08:58:47.668Z,100166.34
2022-12-29T08:59:49.172Z,100171.78
2022-12-29T09:00:52.627Z,100170.16
2022-12-29T09:01:56.806Z,100178.47
2022-12-29T09:02:58.602Z,100176.28
2022-12-29T09:04:17.441Z,100164.53
2022-12-29T09:05:19.372Z,100177.75
2022-12-29T09:06:21.633Z,100180.34
2022-12-29T09:07:23.164Z,100181.00
2022-12-29T09:08:25.707Z,100165.66
2022-12-29T09:09:27.832Z,100171.28
2022-12-29T09:10:29.374Z,100166.06
2022-12-29T09:11:30.864Z,100167.69
2022-12-29T09:12:36.389Z,100176.50
2022-12-29T09:13:41.437Z,100168.38
2022-12-29T09:14:43.790Z,100175.72
2022-12-29T09:15:45.353Z,100167.22
2022-12-29T09:17:05.186Z,100166.63
2022-12-29T09:18:07.567Z,100168.25
2022-12-29T09:19:08.964Z,100171.22
2022-12-29T09:20:11.120Z,100175.72
2022-12-29T09:21:13.865Z,100170.22
2022-12-29T09:22:15.286Z,100165.84
2022-12-29T09:23:16.718Z,100174.84
2022-12-29T09:24:18.207Z,100182.81
2022-12-29T09:25:25.085Z,100154.72
2022-12-29T09:26:26.583Z,100154.88
2022-12-29T09:27:28.271Z,100181.75
2022-12-29T09:28:30.025Z,100170.88
2022-12-29T09:29:31.729Z,100180.03
2022-12-29T09:30:33.250Z,100160.88
2022-12-29T09:31:35.396Z,100163.34
2022-12-29T09:32:43.591Z,100147.25
2022-12-29T09:33:46.531Z,100155.06
2022-12-29T09:34:47.983Z,100134.19
2022-12-29T09:35:55.567Z,100153.34
2022-12-29T09:36:57.153Z,100151.31
2022-12-29T09:37:58.590Z,100146.19
2022-12-29T09:38:59.973Z,100155.38
2022-12-29T09:40:01.528Z,100146.19
2022-12-29T09:41:30.707Z,100152.72
2022-12-29T09:43:04.601Z,100154.75
2022-12-29T09:44:27.121Z,100140.75
2022-12-29T09:45:44.593Z,100131.22
2022-12-29T09:46:50.119Z,100126.72
2022-12-29T09:47:52.048Z,100136.50
2022-12-29T09:49:17.270Z,100131.00
2022-12-29T09:50:31.012Z,100131.00
2022-12-29T09:51:33.783Z,100124.38
2022-12-29T09:52:44.127Z,100124.50
2022-12-29T09:54:14.972Z,100125.72
2022-12-29T09:55:37.699Z,100124.47
2022-12-29T09:56:39.160Z,100137.00
2022-12-29T09:57:50.009Z,100126.31
2022-12-29T09:59:04.407Z,100128.03
2022-12-29T10:00:14.567Z,100126.03
2022-12-29T10:01:29.908Z,100116.59
2022-12-29T10:02:47.417Z,100133.59
2022-12-29T10:03:58.268Z,100130.75
2022-12-29T10:05:00.354Z,100119.97
2022-12-29T10:06:12.516Z,100126.28
2022-12-29T10:07:38.645Z,100136.41
2022-12-29T10:08:54.217Z,100119.50
2022-12-29T10:10:04.583Z,100123.69
2022-12-29T10:11:25.065Z,100130.53
2022-12-29T10:12:31.016Z,100105.72
2022-12-29T10:14:10.918Z,100123.56
2022-12-29T10:15:39.127Z,100131.94
2022-12-29T10:17:00.845Z,100119.09
2022-12-29T10:18:38.609Z,100125.56
2022-12-29T10:19:52.277Z,100114.44
2022-12-29T10:21:15.421Z,100121.69
2022-12-29T10:22:41.560Z,100117.06
2022-12-29T10:23:51.420Z,100126.34
2022-12-29T10:24:57.808Z,100121.97
2022-12-29T10:26:01.999Z,100103.97
2022-12-29T10:27:05.097Z,100119.19
2022-12-29T10:28:23.027Z,100115.28
2022-12-29T10:29:38.665Z,100121.19
2022-12-29T10:30:41.397Z,100122.31
2022-12-29T10:31:51.664Z,100120.22
2022-12-29T10:32:58.011Z,100115.94
2022-12-29T10:34:13.429Z,100125.69
2022-12-29T10:35:19.114Z,100121.06
2022-12-29T10:36:48.189Z,100121.97
2022-12-29T10:38:27.347Z,100109.75
2022-12-29T10:39:41.762Z,100108.97
2022-12-29T10:40:53.058Z,100110.88
2022-12-29T10:41:59.077Z,100121.69
2022-12-29T10:43:02.023Z,100116.13
2022-12-29T10:44:03.694Z,100105.31
2022-12-29T10:45:06.417Z,100110.41
2022-12-29T10:46:16.050Z,100109.84
2022-12-29T10:47:23.261Z,100124.31
2022-12-29T10:48:35.569Z,100119.00
2022-12-29T10:49:42.470Z,100121.47
2022-12-29T10:50:44.154Z,100111.31
2022-12-29T10:51:49.400Z,100118.88
2022-12-29T10:52:51.269Z,100107.78
2022-12-29T10:54:00.650Z,100109.19
2022-12-29T10:55:08.949Z,100112.69
2022-12-29T10:56:22.953Z,100108.03
2022-12-29T10:57:27.756Z,100118.03
2022-12-29T10:58:30.981Z,100115.41
2022-12-29T10:59:36.119Z,100109.56
2022-12-29T11:00:37.724Z,100107.66
2022-12-29T11:01:49.454Z,100120.38
2022-12-29T11:03:03.833Z,100112.22
2022-12-29T11:04:31.840Z,100121.31
2022-12-29T11:05:44.325Z,100113.44
2022-12-29T11:06:45.817Z,100127.06
2022-12-29T11:07:54.067Z,100126.91
2022-12-29T11:09:10.465Z,100116.09
2022-12-29T11:10:22.145Z,100115.13
2022-12-29T11:11:33.121Z,100107.81
2022-12-29T11:12:35.236Z,100114.06
2022-12-29T11:13:49.554Z,100115.69
2022-12-29T11:15:09.556Z,100125.88
2022-12-29T11:16:12.566Z,100119.72
2022-12-29T11:17:19.178Z,100139.50
2022-12-29T11:18:26.196Z,100124.16
2022-12-29T11:19:37.529Z,100119.75
2022-12-29T11:20:43.352Z,100139.94
2022-12-29T11:21:45.928Z,100134.69
2022-12-29T11:22:47.358Z,100138.78
2022-12-29T11:24:00.715Z,100139.22
2022-12-29T11:25:13.800Z,100138.59
2022-12-29T11:26:21.603Z,100136.09
2022-12-29T11:27:25.723Z,100137.28
2022-12-29T11:28:31.474Z,100142.84
2022-12-29T11:29:41.491Z,100146.59
2022-12-29T11:30:43.779Z,100147.00
2022-12-29T11:31:47.586Z,100147.91
2022-12-29T11:32:56.221Z,100137.47
2022-12-29T11:33:57.688Z,100152.81
2022-12-29T11:34:59.843Z,100150.28
2022-12-29T11:36:23.538Z,100136.94
2022-12-29T11:37:39.794Z,100154.25
2022-12-29T11:38:52.422Z,100155.41
2022-12-29T11:40:05.737Z,100164.44
2022-12-29T11:41:13.099Z,100156.41
2022-12-29T11:42:23.050Z,100165.81
2022-12-29T11:43:35.792Z,100152.56
2022-12-29T11:44:43.385Z,100157.50
2022-12-29T11:45:47.591Z,100162.16
2022-12-29T11:46:52.822Z,100164.94
2022-12-29T11:48:19.373Z,100155.94
2022-12-29T11:49:26.589Z,100164.31
2022-12-29T11:50:31.959Z,100144.88
2022-12-29T11:51:45.624Z,100162.09
2022-12-29T11:52:49.404Z,100160.31
2022-12-29T11:53:54.741Z,100154.97
2022-12-29T11:54:57.785Z,100157.00
2022-12-29T11:56:06.947Z,100157.16
2022-12-29T11:57:17.598Z,100168.06
2022-12-29T11:58:19.163Z,100160.94
2022-12-29T11:59:35.098Z,100156.53
2022-12-29T12:00:41.208Z,100158.66
2022-12-29T12:01:44.120Z,100165.81
2022-12-29T12:02:56.228Z,100164.72
2022-12-29T12:04:03.589Z,100159.38
2022-12-29T12:05:20.303Z,100162.28
2022-12-29T12:06:25.153Z,100167.63
2022-12-29T12:07:42.624Z,100185.78
2022-12-29T12:08:57.102Z,100194.88
2022-12-29T12:10:07.314Z,100188.44
2022-12-29T12:11:19.856Z,100189.41
2022-12-29T12:12:30.737Z,100211.31
2022-12-29T12:13:41.229Z,100201.59
2022-12-29T12:14:53.155Z,100202.41
2022-12-29T12:16:18.020Z,100199.78
2022-12-29T12:17:24.868Z,100207.19
2022-12-29T12:18:35.364Z,100196.31
2022-12-29T12:19:45.505Z,100197.16
2022-12-29T12:20:52.939Z,100194.59
2022-12-29T12:22:04.687Z,100201.97
2022-12-29T12:23:35.580Z,100184.56
2022-12-29T12:24:59.088Z,100179.31
2022-12-29T12:26:31.017Z,100187.63
2022-12-29T12:27:41.146Z,100187.66
2022-12-29T12:28:57.738Z,100178.66
2022-12-29T12:30:06.456Z,100179.66
2022-12-29T12:31:19.703Z,100173.47
2022-12-29T12:33:06.957Z,100185.38
2022-12-29T12:34:16.569Z,100169.38
2022-12-29T12:35:29.560Z,100177.53
2022-12-29T12:36:36.975Z,100169.38
2022-12-29T12:38:00.414Z,100165.84
2022-12-29T12:39:20.348Z,100164.06
2022-12-29T12:40:27.754Z,100168.59
2022-12-29T12:41:55.438Z,100169.47
2022-12-29T12:43:02.968Z,100168.59